sensor_id;sensor_type;location;lat;lon;timestamp;pressure;altitude;pressure_sealevel;temperature;humidity
69306;BME280;56427;51.580;4.656;2023-02-26T00:01:34;101860.88;;;-0.42;100.00
69306;BME280;56427;51.580;4.656;2023-02-26T00:04:03;101862.59;;;-0.43;100.00
69306;BME280;56427;51.580;4.656;2023-02-26T00:06:35;101859.13;;;-0.42;100.00
69306;BME280;56427;51.580;4.656;2023-02-26T00:09:01;101874.97;;;-0.26;100.00
69306;BME280;56427;51.580;4.656;2023-02-26T00:11:28;101876.91;;;-0.37;100.00
69306;BME280;56427;51.580;4.656;2023-02-26T00:13:53;101878.75;;;-0.44;100.00
69306;BME280;56427;51.580;4.656;2023-02-26T00:16:34;101871.09;;;-0.44;100.00
69306;BME280;56427;51.580;4.656;2023-02-26T00:19:03;101884.44;;;-0.31;100.00
69306;BME280;56427;51.580;4.656;2023-02-26T00:21:29;101887.88;;;-0.33;100.00
69306;BME280;56427;51.580;4.656;2023-02-26T00:23:55;101888.88;;;-0.41;100.00
69306;BME280;56427;51.580;4.656;2023-02-26T00:26:23;101888.75;;;-0.33;100.00
69306;BME280;56427;51.580;4.656;2023-02-26T00:28:49;101895.75;;;-0.44;100.00
69306;BME280;56427;51.580;4.656;2023-02-26T00:31:16;101890.63;;;-0.43;100.00
69306;BME280;56427;51.580;4.656;2023-02-26T00:33:43;101898.00;;;-0.29;100.00
69306;BME280;56427;51.580;4.656;2023-02-26T00:36:20;101900.63;;;-0.33;100.00
69306;BME280;56427;51.580;4.656;2023-02-26T00:38:57;101908.25;;;-0.32;100.00
69306;BME280;56427;51.580;4.656;2023-02-26T00:41:25;101908.53;;;-0.46;100.00
69306;BME280;56427;51.580;4.656;2023-02-26T00:43:51;101921.53;;;-0.58;100.00
69306;BME280;56427;51.580;4.656;2023-02-26T00:49:12;101918.09;;;-0.56;100.00
69306;BME280;56427;51.580;4.656;2023-02-26T00:51:48;101922.53;;;-0.23;100.00
69306;BME280;56427;51.580;4.656;2023-02-26T00:54:21;101920.50;;;-0.07;100.00
69306;BME280;56427;51.580;4.656;2023-02-26T00:56:48;101925.06;;;-0.23;100.00
69306;BME280;56427;51.580;4.656;2023-02-26T00:59:15;101924.41;;;-0.31;100.00
69306;BME280;56427;51.580;4.656;2023-02-26T01:01:41;101928.75;;;-0.37;100.00
69306;BME280;56427;51.580;4.656;2023-02-26T01:04:07;101923.75;;;-0.41;100.00
69306;BME280;56427;51.580;4.656;2023-02-26T01:06:34;101929.81;;;-0.47;100.00
69306;BME280;56427;51.580;4.656;2023-02-26T01:09:24;101932.97;;;-0.34;100.00
69306;BME280;56427;51.580;4.656;2023-02-26T01:11:56;101921.78;;;-0.28;100.00
69306;BME280;56427;51.580;4.656;2023-02-26T01:14:22;101930.38;;;-0.32;100.00
69306;BME280;56427;51.580;4.656;2023-02-26T01:17:07;101934.22;;;0.28;100.00
69306;BME280;56427;51.580;4.656;2023-02-26T01:22:18;101941.75;;;-0.07;100.00
69306;BME280;56427;51.580;4.656;2023-02-26T01:24:46;101943.53;;;0.30;100.00
69306;BME280;56427;51.580;4.656;2023-02-26T01:27:12;101943.00;;;0.14;100.00
69306;BME280;56427;51.580;4.656;2023-02-26T01:29:38;101949.50;;;0.67;100.00
69306;BME280;56427;51.580;4.656;2023-02-26T01:34:48;101952.81;;;0.70;100.00
69306;BME280;56427;51.580;4.656;2023-02-26T01:40:07;101955.78;;;0.53;100.00
69306;BME280;56427;51.580;4.656;2023-02-26T01:42:42;101961.72;;;0.54;100.00
69306;BME280;56427;51.580;4.656;2023-02-26T01:45:12;101958.13;;;0.99;100.00
69306;BME280;56427;51.580;4.656;2023-02-26T01:47:48;101967.88;;;1.17;100.00
69306;BME280;56427;51.580;4.656;2023-02-26T01:50:18;101974.16;;;1.38;100.00
69306;BME280;56427;51.580;4.656;2023-02-26T01:55:18;101975.84;;;1.38;100.00
69306;BME280;56427;51.580;4.656;2023-02-26T01:57:45;101986.13;;;1.36;100.00
69306;BME280;56427;51.580;4.656;2023-02-26T02:00:11;101972.47;;;1.37;100.00
69306;BME280;56427;51.580;4.656;2023-02-26T02:02:37;101984.38;;;1.38;100.00
69306;BME280;56427;51.580;4.656;2023-02-26T02:05:08;101983.47;;;1.39;100.00
69306;BME280;56427;51.580;4.656;2023-02-26T02:07:36;101984.47;;;1.35;100.00
69306;BME280;56427;51.580;4.656;2023-02-26T02:10:02;101988.09;;;1.25;100.00
69306;BME280;56427;51.580;4.656;2023-02-26T02:12:34;101990.84;;;1.19;100.00
69306;BME280;56427;51.580;4.656;2023-02-26T02:21:14;102003.22;;;1.00;100.00
69306;BME280;56427;51.580;4.656;2023-02-26T02:31:54;102005.84;;;0.97;100.00
69306;BME280;56427;51.580;4.656;2023-02-26T02:37:00;102010.38;;;0.85;100.00
69306;BME280;56427;51.580;4.656;2023-02-26T02:39:39;102010.47;;;0.82;100.00
69306;BME280;56427;51.580;4.656;2023-02-26T02:42:17;102008.13;;;0.73;100.00
69306;BME280;56427;51.580;4.656;2023-02-26T02:45:00;102012.53;;;0.66;100.00
69306;BME280;56427;51.580;4.656;2023-02-26T02:47:28;102016.59;;;0.75;100.00
69306;BME280;56427;51.580;4.656;2023-02-26T02:50:13;102013.47;;;0.62;100.00
69306;BME280;56427;51.580;4.656;2023-02-26T02:55:16;102017.69;;;0.65;100.00
69306;BME280;56427;51.580;4.656;2023-02-26T02:57:51;102016.91;;;0.61;100.00
69306;BME280;56427;51.580;4.656;2023-02-26T03:00:21;102014.44;;;0.58;100.00
69306;BME280;56427;51.580;4.656;2023-02-26T03:02:50;102026.19;;;0.65;100.00
69306;BME280;56427;51.580;4.656;2023-02-26T03:05:16;102027.38;;;0.49;100.00
69306;BME280;56427;51.580;4.656;2023-02-26T03:07:47;102026.53;;;0.50;100.00
69306;BME280;56427;51.580;4.656;2023-02-26T03:10:14;102025.75;;;0.46;100.00
69306;BME280;56427;51.580;4.656;2023-02-26T03:12:40;102036.97;;;0.39;100.00
69306;BME280;56427;51.580;4.656;2023-02-26T03:15:06;102032.59;;;0.44;100.00
69306;BME280;56427;51.580;4.656;2023-02-26T03:20:25;102043.72;;;0.42;100.00
69306;BME280;56427;51.580;4.656;2023-02-26T03:23:11;102045.50;;;0.38;100.00
69306;BME280;56427;51.580;4.656;2023-02-26T03:26:09;102042.81;;;0.44;100.00
69306;BME280;56427;51.580;4.656;2023-02-26T03:28:58;102046.47;;;0.32;100.00
69306;BME280;56427;51.580;4.656;2023-02-26T03:31:32;102050.06;;;0.24;100.00
69306;BME280;56427;51.580;4.656;2023-02-26T03:34:03;102055.09;;;0.27;100.00
69306;BME280;56427;51.580;4.656;2023-02-26T03:36:36;102062.06;;;0.20;100.00
69306;BME280;56427;51.580;4.656;2023-02-26T03:39:19;102060.22;;;0.27;100.00
69306;BME280;56427;51.580;4.656;2023-02-26T03:44:36;102063.94;;;0.10;100.00
69306;BME280;56427;51.580;4.656;2023-02-26T03:47:07;102067.25;;;0.15;100.00
69306;BME280;56427;51.580;4.656;2023-02-26T03:49:56;102077.53;;;0.11;100.00
69306;BME280;56427;51.580;4.656;2023-02-26T03:52:25;102066.38;;;0.16;100.00
69306;BME280;56427;51.580;4.656;2023-02-26T03:55:05;102067.19;;;0.18;100.00
69306;BME280;56427;51.580;4.656;2023-02-26T03:57:33;102082.56;;;0.15;100.00
69306;BME280;56427;51.580;4.656;2023-02-26T03:59:59;102080.72;;;0.22;100.00
69306;BME280;56427;51.580;4.656;2023-02-26T04:02:36;102076.63;;;0.15;100.00
69306;BME280;56427;51.580;4.656;2023-02-26T04:05:11;102065.97;;;-0.07;100.00
69306;BME280;56427;51.580;4.656;2023-02-26T04:07:39;102090.31;;;0.11;100.00
69306;BME280;56427;51.580;4.656;2023-02-26T04:10:05;102099.03;;;-0.01;100.00
69306;BME280;56427;51.580;4.656;2023-02-26T04:12:31;102101.47;;;0.07;100.00
69306;BME280;56427;51.580;4.656;2023-02-26T04:14:57;102097.25;;;0.03;100.00
69306;BME280;56427;51.580;4.656;2023-02-26T04:17:22;102110.09;;;-0.02;100.00
69306;BME280;56427;51.580;4.656;2023-02-26T04:19:48;102109.94;;;0.07;100.00
69306;BME280;56427;51.580;4.656;2023-02-26T04:22:13;102107.44;;;0.04;100.00
69306;BME280;56427;51.580;4.656;2023-02-26T04:24:39;102107.53;;;-0.01;100.00
69306;BME280;56427;51.580;4.656;2023-02-26T04:27:04;102118.00;;;-0.14;100.00
69306;BME280;56427;51.580;4.656;2023-02-26T04:29:30;102118.78;;;-0.11;100.00
69306;BME280;56427;51.580;4.656;2023-02-26T04:31:55;102117.94;;;-0.11;100.00
69306;BME280;56427;51.580;4.656;2023-02-26T04:34:21;102124.97;;;-0.24;100.00
69306;BME280;56427;51.580;4.656;2023-02-26T04:36:46;102123.09;;;-0.14;100.00
69306;BME280;56427;51.580;4.656;2023-02-26T04:39:11;102129.03;;;-0.14;100.00
69306;BME280;56427;51.580;4.656;2023-02-26T04:41:37;102119.91;;;-0.26;100.00
69306;BME280;56427;51.580;4.656;2023-02-26T04:44:03;102124.94;;;-0.23;100.00
69306;BME280;56427;51.580;4.656;2023-02-26T04:46:29;102128.44;;;-0.28;100.00
69306;BME280;56427;51.580;4.656;2023-02-26T04:48:55;102130.03;;;-0.23;100.00
69306;BME280;56427;51.580;4.656;2023-02-26T04:51:20;102139.53;;;-0.31;100.00
69306;BME280;56427;51.580;4.656;2023-02-26T04:53:48;102132.41;;;-0.13;100.00
69306;BME280;56427;51.580;4.656;2023-02-26T04:56:14;102142.72;;;-0.18;100.00
69306;BME280;56427;51.580;4.656;2023-02-26T04:58:39;102154.84;;;-0.31;100.00
69306;BME280;56427;51.580;4.656;2023-02-26T05:01:05;102154.13;;;-0.39;100.00
69306;BME280;56427;51.580;4.656;2023-02-26T05:03:30;102161.63;;;-0.31;100.00
69306;BME280;56427;51.580;4.656;2023-02-26T05:05:56;102162.72;;;-0.46;100.00
69306;BME280;56427;51.580;4.656;2023-02-26T05:08:21;102163.47;;;-0.40;100.00
69306;BME280;56427;51.580;4.656;2023-02-26T05:10:47;102166.75;;;-0.31;100.00
69306;BME280;56427;51.580;4.656;2023-02-26T05:13:13;102165.97;;;-0.37;100.00
69306;BME280;56427;51.580;4.656;2023-02-26T05:15:38;102162.72;;;-0.45;100.00
69306;BME280;56427;51.580;4.656;2023-02-26T05:18:04;102169.44;;;-0.39;100.00
69306;BME280;56427;51.580;4.656;2023-02-26T05:20:29;102163.63;;;-0.47;100.00
69306;BME280;56427;51.580;4.656;2023-02-26T05:22:54;102175.66;;;-0.57;100.00
69306;BME280;56427;51.580;4.656;2023-02-26T05:25:20;102170.66;;;-0.65;100.00
69306;BME280;56427;51.580;4.656;2023-02-26T05:27:45;102172.22;;;-0.54;100.00
69306;BME280;56427;51.580;4.656;2023-02-26T05:30:13;102177.38;;;-0.58;100.00
69306;BME280;56427;51.580;4.656;2023-02-26T05:32:39;102182.31;;;-0.48;100.00
69306;BME280;56427;51.580;4.656;2023-02-26T05:35:05;102183.47;;;-0.69;100.00
69306;BME280;56427;51.580;4.656;2023-02-26T05:37:30;102183.28;;;-0.54;100.00
69306;BME280;56427;51.580;4.656;2023-02-26T05:39:56;102191.16;;;-0.72;100.00
69306;BME280;56427;51.580;4.656;2023-02-26T05:42:21;102188.56;;;-0.69;100.00
69306;BME280;56427;51.580;4.656;2023-02-26T05:44:47;102183.69;;;-0.83;100.00
69306;BME280;56427;51.580;4.656;2023-02-26T05:47:12;102187.75;;;-0.71;100.00
69306;BME280;56427;51.580;4.656;2023-02-26T05:49:37;102184.34;;;-0.70;100.00
69306;BME280;56427;51.580;4.656;2023-02-26T05:52:03;102186.75;;;-0.61;100.00
69306;BME280;56427;51.580;4.656;2023-02-26T05:54:28;102192.16;;;-0.83;100.00
69306;BME280;56427;51.580;4.656;2023-02-26T05:56:54;102200.72;;;-0.85;100.00
69306;BME280;56427;51.580;4.656;2023-02-26T05:59:20;102199.09;;;-0.93;100.00
69306;BME280;56427;51.580;4.656;2023-02-26T06:01:45;102208.44;;;-0.91;100.00
69306;BME280;56427;51.580;4.656;2023-02-26T06:04:11;102213.34;;;-0.79;100.00
69306;BME280;56427;51.580;4.656;2023-02-26T06:06:36;102215.97;;;-0.82;100.00
69306;BME280;56427;51.580;4.656;2023-02-26T06:09:02;102225.13;;;-0.67;100.00
69306;BME280;56427;51.580;4.656;2023-02-26T06:11:28;102228.72;;;-0.82;100.00
69306;BME280;56427;51.580;4.656;2023-02-26T06:13:54;102236.19;;;-0.71;100.00
69306;BME280;56427;51.580;4.656;2023-02-26T06:16:20;102240.53;;;-0.77;100.00
69306;BME280;56427;51.580;4.656;2023-02-26T06:18:46;102242.13;;;-0.69;100.00
69306;BME280;56427;51.580;4.656;2023-02-26T06:21:12;102244.25;;;-1.04;100.00
69306;BME280;56427;51.580;4.656;2023-02-26T06:23:37;102251.00;;;-1.00;100.00
69306;BME280;56427;51.580;4.656;2023-02-26T06:26:03;102251.50;;;-0.73;100.00
69306;BME280;56427;51.580;4.656;2023-02-26T06:28:28;102250.78;;;-0.81;100.00
69306;BME280;56427;51.580;4.656;2023-02-26T06:30:54;102265.34;;;-0.91;100.00
69306;BME280;56427;51.580;4.656;2023-02-26T06:33:25;102268.59;;;-0.80;100.00
69306;BME280;56427;51.580;4.656;2023-02-26T06:35:50;102263.56;;;-0.84;100.00
69306;BME280;56427;51.580;4.656;2023-02-26T06:38:16;102273.84;;;-0.90;100.00
69306;BME280;56427;51.580;4.656;2023-02-26T06:40:42;102272.09;;;-0.87;100.00
69306;BME280;56427;51.580;4.656;2023-02-26T06:43:07;102280.63;;;-0.91;100.00
69306;BME280;56427;51.580;4.656;2023-02-26T06:45:33;102278.31;;;-1.11;100.00
69306;BME280;56427;51.580;4.656;2023-02-26T06:47:58;102283.38;;;-1.06;100.00
69306;BME280;56427;51.580;4.656;2023-02-26T06:50:23;102285.66;;;-0.85;100.00
69306;BME280;56427;51.580;4.656;2023-02-26T06:52:49;102294.25;;;-0.94;100.00
69306;BME280;56427;51.580;4.656;2023-02-26T06:55:15;102289.78;;;-0.76;100.00
69306;BME280;56427;51.580;4.656;2023-02-26T06:57:40;102295.75;;;-0.76;100.00
69306;BME280;56427;51.580;4.656;2023-02-26T07:00:08;102292.19;;;-0.62;100.00
69306;BME280;56427;51.580;4.656;2023-02-26T07:02:34;102296.78;;;-0.25;100.00
69306;BME280;56427;51.580;4.656;2023-02-26T07:04:59;102297.53;;;-0.20;100.00
69306;BME280;56427;51.580;4.656;2023-02-26T07:07:25;102304.38;;;-0.22;100.00
69306;BME280;56427;51.580;4.656;2023-02-26T07:09:53;102319.31;;;0.04;100.00
69306;BME280;56427;51.580;4.656;2023-02-26T07:12:18;102313.03;;;0.25;100.00
69306;BME280;56427;51.580;4.656;2023-02-26T07:14:44;102332.81;;;0.12;100.00
69306;BME280;56427;51.580;4.656;2023-02-26T07:17:11;102325.72;;;0.31;100.00
69306;BME280;56427;51.580;4.656;2023-02-26T07:19:47;102316.50;;;0.21;100.00
69306;BME280;56427;51.580;4.656;2023-02-26T07:22:13;102336.16;;;0.16;100.00
69306;BME280;56427;51.580;4.656;2023-02-26T07:24:40;102338.88;;;0.58;100.00
69306;BME280;56427;51.580;4.656;2023-02-26T07:27:05;102338.66;;;0.70;100.00
69306;BME280;56427;51.580;4.656;2023-02-26T07:29:34;102341.91;;;0.79;100.00
69306;BME280;56427;51.580;4.656;2023-02-26T07:32:00;102347.88;;;0.81;100.00
69306;BME280;56427;51.580;4.656;2023-02-26T07:34:25;102354.16;;;1.08;99.69
69306;BME280;56427;51.580;4.656;2023-02-26T07:36:51;102359.66;;;1.74;96.06
69306;BME280;56427;51.580;4.656;2023-02-26T07:39:16;102363.28;;;2.04;92.12
69306;BME280;56427;51.580;4.656;2023-02-26T07:41:41;102363.34;;;2.01;90.26
69306;BME280;56427;51.580;4.656;2023-02-26T07:44:07;102367.94;;;2.60;87.95
69306;BME280;56427;51.580;4.656;2023-02-26T07:46:32;102375.78;;;2.87;87.38
69306;BME280;56427;51.580;4.656;2023-02-26T07:48:58;102380.59;;;2.99;85.50
69306;BME280;56427;51.580;4.656;2023-02-26T07:51:29;102375.97;;;2.79;84.12
69306;BME280;56427;51.580;4.656;2023-02-26T07:53:54;102376.66;;;2.86;83.91
69306;BME280;56427;51.580;4.656;2023-02-26T07:56:20;102385.56;;;2.72;84.25
69306;BME280;56427;51.580;4.656;2023-02-26T07:58:45;102393.28;;;2.35;84.68
69306;BME280;56427;51.580;4.656;2023-02-26T08:01:10;102389.50;;;2.51;84.83
69306;BME280;56427;51.580;4.656;2023-02-26T08:03:36;102389.38;;;2.20;86.43
69306;BME280;56427;51.580;4.656;2023-02-26T08:06:01;102391.75;;;2.64;85.71
69306;BME280;56427;51.580;4.656;2023-02-26T08:08:27;102399.81;;;2.83;85.15
69306;BME280;56427;51.580;4.656;2023-02-26T08:10:53;102401.28;;;2.58;84.85
69306;BME280;56427;51.580;4.656;2023-02-26T08:13:19;102403.22;;;2.85;85.81
69306;BME280;56427;51.580;4.656;2023-02-26T08:15:46;102402.00;;;2.28;84.53
69306;BME280;56427;51.580;4.656;2023-02-26T08:18:12;102411.94;;;2.76;85.76
69306;BME280;56427;51.580;4.656;2023-02-26T08:20:37;102415.34;;;2.42;85.48
69306;BME280;56427;51.580;4.656;2023-02-26T08:23:03;102419.81;;;2.70;86.51
69306;BME280;56427;51.580;4.656;2023-02-26T08:25:28;102414.91;;;2.95;84.29
69306;BME280;56427;51.580;4.656;2023-02-26T08:27:53;102424.16;;;2.66;84.22
69306;BME280;56427;51.580;4.656;2023-02-26T08:30:23;102425.78;;;2.70;85.08
69306;BME280;56427;51.580;4.656;2023-02-26T08:32:48;102427.81;;;2.92;84.00
69306;BME280;56427;51.580;4.656;2023-02-26T08:35:17;102418.53;;;2.88;84.21
69306;BME280;56427;51.580;4.656;2023-02-26T08:37:42;102433.13;;;3.17;84.15
69306;BME280;56427;51.580;4.656;2023-02-26T08:40:09;102433.84;;;3.22;82.19
69306;BME280;56427;51.580;4.656;2023-02-26T08:42:35;102440.72;;;2.87;81.26
69306;BME280;56427;51.580;4.656;2023-02-26T08:45:00;102443.28;;;2.87;81.74
69306;BME280;56427;51.580;4.656;2023-02-26T08:47:26;102447.84;;;2.76;81.94
69306;BME280;56427;51.580;4.656;2023-02-26T08:49:51;102460.53;;;3.17;82.74
69306;BME280;56427;51.580;4.656;2023-02-26T08:52:17;102462.50;;;3.38;82.49
69306;BME280;56427;51.580;4.656;2023-02-26T08:54:43;102460.09;;;3.32;82.05
69306;BME280;56427;51.580;4.656;2023-02-26T08:57:08;102459.69;;;4.09;79.72
69306;BME280;56427;51.580;4.656;2023-02-26T08:59:36;102464.34;;;3.00;81.46
69306;BME280;56427;51.580;4.656;2023-02-26T09:02:02;102469.66;;;2.92;82.49
69306;BME280;56427;51.580;4.656;2023-02-26T09:04:27;102473.88;;;3.29;81.76
69306;BME280;56427;51.580;4.656;2023-02-26T09:06:53;102486.66;;;2.98;80.77
69306;BME280;56427;51.580;4.656;2023-02-26T09:09:18;102490.47;;;3.16;81.89
69306;BME280;56427;51.580;4.656;2023-02-26T09:11:44;102475.53;;;3.30;82.01
69306;BME280;56427;51.580;4.656;2023-02-26T09:14:09;102483.91;;;3.70;79.19
69306;BME280;56427;51.580;4.656;2023-02-26T09:16:35;102473.97;;;3.89;77.33
69306;BME280;56427;51.580;4.656;2023-02-26T09:19:02;102487.13;;;4.08;75.60
69306;BME280;56427;51.580;4.656;2023-02-26T09:21:28;102484.69;;;4.03;73.54
69306;BME280;56427;51.580;4.656;2023-02-26T09:23:53;102492.09;;;3.83;73.72
69306;BME280;56427;51.580;4.656;2023-02-26T09:26:19;102488.47;;;4.20;72.51
69306;BME280;56427;51.580;4.656;2023-02-26T09:28:44;102497.66;;;3.99;73.37
69306;BME280;56427;51.580;4.656;2023-02-26T09:31:09;102496.31;;;3.54;72.36
69306;BME280;56427;51.580;4.656;2023-02-26T09:33:35;102498.97;;;3.51;71.85
69306;BME280;56427;51.580;4.656;2023-02-26T09:36:00;102506.41;;;3.62;71.76
69306;BME280;56427;51.580;4.656;2023-02-26T09:38:26;102505.00;;;3.48;71.45
69306;BME280;56427;51.580;4.656;2023-02-26T09:40:59;102512.84;;;3.77;70.66
69306;BME280;56427;51.580;4.656;2023-02-26T09:49:44;102523.88;;;3.80;71.79
69306;BME280;56427;51.580;4.656;2023-02-26T09:52:18;102511.53;;;3.62;72.60
69306;BME280;56427;51.580;4.656;2023-02-26T09:57:36;102525.84;;;3.71;71.01
69306;BME280;56427;51.580;4.656;2023-02-26T10:01:16;102551.75;;;3.93;71.31
69306;BME280;56427;51.580;4.656;2023-02-26T10:03:29;102550.19;;;3.56;71.37
69306;BME280;56427;51.580;4.656;2023-02-26T10:11:45;102530.38;;;3.61;70.21
69306;BME280;56427;51.580;4.656;2023-02-26T10:14:31;102532.59;;;3.73;67.80
69306;BME280;56427;51.580;4.656;2023-02-26T10:17:02;102535.66;;;3.87;66.32
69306;BME280;56427;51.580;4.656;2023-02-26T10:19:34;102548.16;;;4.30;66.59
69306;BME280;56427;51.580;4.656;2023-02-26T10:22:23;102548.38;;;4.22;64.33
69306;BME280;56427;51.580;4.656;2023-02-26T10:24:54;102543.81;;;4.02;65.67
69306;BME280;56427;51.580;4.656;2023-02-26T10:30:43;102558.69;;;3.91;63.60
69306;BME280;56427;51.580;4.656;2023-02-26T10:33:36;102557.81;;;3.59;62.48
69306;BME280;56427;51.580;4.656;2023-02-26T10:36:25;102559.56;;;3.57;62.43
69306;BME280;56427;51.580;4.656;2023-02-26T10:39:19;102575.53;;;3.35;63.81
69306;BME280;56427;51.580;4.656;2023-02-26T10:41:44;102561.50;;;3.48;63.05
69306;BME280;56427;51.580;4.656;2023-02-26T10:47:06;102559.53;;;3.24;63.42
69306;BME280;56427;51.580;4.656;2023-02-26T10:49:45;102560.50;;;3.54;63.51
69306;BME280;56427;51.580;4.656;2023-02-26T10:52:17;102560.72;;;3.78;63.18
69306;BME280;56427;51.580;4.656;2023-02-26T10:55:19;102565.63;;;3.87;62.87
69306;BME280;56427;51.580;4.656;2023-02-26T10:58:02;102570.22;;;4.07;61.99
69306;BME280;56427;51.580;4.656;2023-02-26T11:00:27;102571.13;;;4.04;61.38
69306;BME280;56427;51.580;4.656;2023-02-26T11:02:53;102578.16;;;3.98;60.96
69306;BME280;56427;51.580;4.656;2023-02-26T11:05:23;102569.34;;;3.77;61.43
69306;BME280;56427;51.580;4.656;2023-02-26T11:08:04;102583.22;;;3.69;61.25
69306;BME280;56427;51.580;4.656;2023-02-26T11:10:44;102560.09;;;3.37;61.29
69306;BME280;56427;51.580;4.656;2023-02-26T11:13:11;102587.50;;;3.69;61.88
69306;BME280;56427;51.580;4.656;2023-02-26T11:15:37;102589.13;;;3.72;62.20
69306;BME280;56427;51.580;4.656;2023-02-26T11:18:03;102571.50;;;3.59;61.83
69306;BME280;56427;51.580;4.656;2023-02-26T11:20:41;102592.31;;;3.81;63.59
69306;BME280;56427;51.580;4.656;2023-02-26T11:23:12;102574.41;;;4.11;63.06
69306;BME280;56427;51.580;4.656;2023-02-26T11:25:38;102570.50;;;3.96;63.12
69306;BME280;56427;51.580;4.656;2023-02-26T11:28:07;102574.75;;;3.97;61.76
69306;BME280;56427;51.580;4.656;2023-02-26T11:30:36;102585.56;;;4.10;62.51
69306;BME280;56427;51.580;4.656;2023-02-26T11:33:19;102568.03;;;4.24;61.70
69306;BME280;56427;51.580;4.656;2023-02-26T11:35:45;102574.66;;;4.32;61.81
69306;BME280;56427;51.580;4.656;2023-02-26T11:38:17;102560.78;;;4.37;61.63
69306;BME280;56427;51.580;4.656;2023-02-26T11:40:46;102566.09;;;4.89;60.94
69306;BME280;56427;51.580;4.656;2023-02-26T11:43:21;102563.56;;;5.14;59.76
69306;BME280;56427;51.580;4.656;2023-02-26T11:45:51;102554.06;;;4.61;59.81
69306;BME280;56427;51.580;4.656;2023-02-26T11:48:37;102553.88;;;4.39;58.62
69306;BME280;56427;51.580;4.656;2023-02-26T11:51:04;102551.53;;;4.88;60.07
69306;BME280;56427;51.580;4.656;2023-02-26T11:53:33;102551.84;;;5.06;59.20
69306;BME280;56427;51.580;4.656;2023-02-26T11:56:02;102550.66;;;4.61;58.01
69306;BME280;56427;51.580;4.656;2023-02-26T11:58:35;102559.63;;;4.48;57.57
69306;BME280;56427;51.580;4.656;2023-02-26T12:01:02;102546.00;;;4.74;57.76
69306;BME280;56427;51.580;4.656;2023-02-26T12:03:32;102556.69;;;4.60;57.24
69306;BME280;56427;51.580;4.656;2023-02-26T12:05:59;102550.44;;;4.69;57.75
69306;BME280;56427;51.580;4.656;2023-02-26T12:08:31;102540.13;;;4.97;58.19
69306;BME280;56427;51.580;4.656;2023-02-26T12:14:24;102553.06;;;4.94;57.17
69306;BME280;56427;51.580;4.656;2023-02-26T12:41:43;102560.34;;;4.81;56.38
69306;BME280;56427;51.580;4.656;2023-02-26T12:50:05;102562.41;;;5.50;55.70
69306;BME280;56427;51.580;4.656;2023-02-26T13:11:40;102549.19;;;5.34;56.35
69306;BME280;56427;51.580;4.656;2023-02-26T13:19:52;102547.47;;;5.60;56.31
69306;BME280;56427;51.580;4.656;2023-02-26T13:23:03;102545.09;;;5.53;55.97
69306;BME280;56427;51.580;4.656;2023-02-26T13:28:21;102552.81;;;5.53;53.56
69306;BME280;56427;51.580;4.656;2023-02-26T13:30:52;102551.97;;;5.28;53.49
69306;BME280;56427;51.580;4.656;2023-02-26T13:33:23;102550.88;;;5.60;53.51
69306;BME280;56427;51.580;4.656;2023-02-26T13:35:51;102551.13;;;5.52;53.82
69306;BME280;56427;51.580;4.656;2023-02-26T13:38:26;102540.78;;;5.54;53.21
69306;BME280;56427;51.580;4.656;2023-02-26T13:40:59;102560.06;;;5.42;52.15
69306;BME280;56427;51.580;4.656;2023-02-26T13:46:25;102557.84;;;5.05;51.74
69306;BME280;56427;51.580;4.656;2023-02-26T13:51:52;102554.19;;;5.89;54.26
69306;BME280;56427;51.580;4.656;2023-02-26T14:06:42;102550.50;;;5.71;54.38
69306;BME280;56427;51.580;4.656;2023-02-26T14:12:02;102543.66;;;5.70;53.66
69306;BME280;56427;51.580;4.656;2023-02-26T14:19:34;102555.69;;;5.44;56.69
69306;BME280;56427;51.580;4.656;2023-02-26T14:22:20;102544.34;;;5.75;58.05
69306;BME280;56427;51.580;4.656;2023-02-26T14:25:18;102550.63;;;5.92;58.08
69306;BME280;56427;51.580;4.656;2023-02-26T14:27:43;102551.94;;;6.03;57.90
69306;BME280;56427;51.580;4.656;2023-02-26T14:32:48;102553.66;;;5.79;57.62
69306;BME280;56427;51.580;4.656;2023-02-26T14:38:04;102541.59;;;5.80;57.30
69306;BME280;56427;51.580;4.656;2023-02-26T14:40:42;102555.78;;;5.92;57.93
69306;BME280;56427;51.580;4.656;2023-02-26T14:43:17;102545.28;;;5.98;57.94
69306;BME280;56427;51.580;4.656;2023-02-26T14:45:43;102548.63;;;5.76;56.98
69306;BME280;56427;51.580;4.656;2023-02-26T14:48:15;102539.31;;;5.97;56.34
69306;BME280;56427;51.580;4.656;2023-02-26T14:51:26;102551.91;;;5.80;56.62
69306;BME280;56427;51.580;4.656;2023-02-26T15:08:29;102552.69;;;5.82;57.43
69306;BME280;56427;51.580;4.656;2023-02-26T15:11:07;102555.09;;;5.63;58.01
69306;BME280;56427;51.580;4.656;2023-02-26T15:16:52;102552.38;;;5.67;58.58
69306;BME280;56427;51.580;4.656;2023-02-26T15:19:27;102549.88;;;5.64;59.32
69306;BME280;56427;51.580;4.656;2023-02-26T15:24:44;102556.97;;;5.83;57.34
69306;BME280;56427;51.580;4.656;2023-02-26T15:27:15;102551.44;;;5.68;57.20
69306;BME280;56427;51.580;4.656;2023-02-26T15:29:41;102559.53;;;5.59;57.53
69306;BME280;56427;51.580;4.656;2023-02-26T15:32:25;102559.34;;;5.89;57.71
69306;BME280;56427;51.580;4.656;2023-02-26T15:35:00;102564.47;;;5.89;58.42
69306;BME280;56427;51.580;4.656;2023-02-26T15:37:28;102558.97;;;6.00;57.95
69306;BME280;56427;51.580;4.656;2023-02-26T15:40:03;102562.00;;;5.86;57.26
69306;BME280;56427;51.580;4.656;2023-02-26T15:42:35;102566.81;;;5.71;57.21
69306;BME280;56427;51.580;4.656;2023-02-26T15:45:05;102573.22;;;5.60;57.31
69306;BME280;56427;51.580;4.656;2023-02-26T15:47:34;102576.44;;;5.90;57.68
69306;BME280;56427;51.580;4.656;2023-02-26T15:50:03;102568.31;;;5.77;57.78
69306;BME280;56427;51.580;4.656;2023-02-26T15:52:29;102572.25;;;5.62;57.35
69306;BME280;56427;51.580;4.656;2023-02-26T15:55:02;102566.34;;;5.35;57.66
69306;BME280;56427;51.580;4.656;2023-02-26T15:57:29;102574.59;;;5.45;56.94
69306;BME280;56427;51.580;4.656;2023-02-26T16:00:15;102573.31;;;5.31;56.99